sensor_id;sensor_type;location;lat;lon;timestamp;temperature;humidity
67354;SHT30;54238;52.278;21.056;2022-07-25T00:01:38;19.30;69.34
67354;SHT30;54238;52.278;21.056;2022-07-25T00:04:09;19.27;69.40
67354;SHT30;54238;52.278;21.056;2022-07-25T00:06:42;19.23;69.33
67354;SHT30;54238;52.278;21.056;2022-07-25T00:09:11;19.18;69.41
67354;SHT30;54238;52.278;21.056;2022-07-25T00:11:39;19.14;69.58
67354;SHT30;54238;52.278;21.056;2022-07-25T00:14:07;19.10;69.73
67354;SHT30;54238;52.278;21.056;2022-07-25T00:16:35;19.07;69.88
67354;SHT30;54238;52.278;21.056;2022-07-25T00:19:02;19.06;69.88
67354;SHT30;54238;52.278;21.056;2022-07-25T00:21:28;19.08;69.92
67354;SHT30;54238;52.278;21.056;2022-07-25T00:23:58;19.08;69.89
67354;SHT30;54238;52.278;21.056;2022-07-25T00:26:25;19.05;69.96
67354;SHT30;54238;52.278;21.056;2022-07-25T00:28:54;19.09;69.97
67354;SHT30;54238;52.278;21.056;2022-07-25T00:31:21;19.06;69.95
67354;SHT30;54238;52.278;21.056;2022-07-25T00:33:50;19.01;70.04
67354;SHT30;54238;52.278;21.056;2022-07-25T00:36:17;18.95;70.18
67354;SHT30;54238;52.278;21.056;2022-07-25T00:38:48;18.89;70.40
67354;SHT30;54238;52.278;21.056;2022-07-25T00:41:15;18.83;70.64
67354;SHT30;54238;52.278;21.056;2022-07-25T00:43:43;18.77;70.81
67354;SHT30;54238;52.278;21.056;2022-07-25T00:46:17;18.76;71.06
67354;SHT30;54238;52.278;21.056;2022-07-25T00:48:48;18.74;71.21
67354;SHT30;54238;52.278;21.056;2022-07-25T00:51:16;18.67;71.44
67354;SHT30;54238;52.278;21.056;2022-07-25T00:53:45;18.64;71.64
67354;SHT30;54238;52.278;21.056;2022-07-25T00:56:16;18.67;71.74
67354;SHT30;54238;52.278;21.056;2022-07-25T00:58:45;18.66;71.69
67354;SHT30;54238;52.278;21.056;2022-07-25T01:01:15;18.61;71.63
67354;SHT30;54238;52.278;21.056;2022-07-25T01:03:44;18.57;71.70
67354;SHT30;54238;52.278;21.056;2022-07-25T01:06:11;18.52;71.83
67354;SHT30;54238;52.278;21.056;2022-07-25T01:08:43;18.52;72.19
67354;SHT30;54238;52.278;21.056;2022-07-25T01:11:12;18.52;72.32
67354;SHT30;54238;52.278;21.056;2022-07-25T01:13:39;18.49;72.28
67354;SHT30;54238;52.278;21.056;2022-07-25T01:16:07;18.48;72.20
67354;SHT30;54238;52.278;21.056;2022-07-25T01:18:36;18.42;72.43
67354;SHT30;54238;52.278;21.056;2022-07-25T01:21:03;18.40;72.76
67354;SHT30;54238;52.278;21.056;2022-07-25T01:23:34;18.38;72.81
67354;SHT30;54238;52.278;21.056;2022-07-25T01:26:01;18.33;73.00
67354;SHT30;54238;52.278;21.056;2022-07-25T01:28:34;18.34;72.90
67354;SHT30;54238;52.278;21.056;2022-07-25T01:31:03;18.34;72.97
67354;SHT30;54238;52.278;21.056;2022-07-25T01:33:30;18.27;73.23
67354;SHT30;54238;52.278;21.056;2022-07-25T01:35:57;18.25;73.62
67354;SHT30;54238;52.278;21.056;2022-07-25T01:38:26;18.26;73.51
67354;SHT30;54238;52.278;21.056;2022-07-25T01:40:54;18.24;73.64
67354;SHT30;54238;52.278;21.056;2022-07-25T01:43:23;18.22;73.73
67354;SHT30;54238;52.278;21.056;2022-07-25T01:45:55;18.23;73.81
67354;SHT30;54238;52.278;21.056;2022-07-25T01:48:22;18.21;73.79
67354;SHT30;54238;52.278;21.056;2022-07-25T01:50:49;18.16;73.78
67354;SHT30;54238;52.278;21.056;2022-07-25T01:53:16;18.14;74.00
67354;SHT30;54238;52.278;21.056;2022-07-25T01:55:46;18.10;74.02
67354;SHT30;54238;52.278;21.056;2022-07-25T01:58:22;18.03;74.04
67354;SHT30;54238;52.278;21.056;2022-07-25T02:00:52;18.00;74.30
67354;SHT30;54238;52.278;21.056;2022-07-25T02:03:21;17.97;74.43
67354;SHT30;54238;52.278;21.056;2022-07-25T02:06:00;17.94;74.61
67354;SHT30;54238;52.278;21.056;2022-07-25T02:08:31;17.93;74.76
67354;SHT30;54238;52.278;21.056;2022-07-25T02:11:04;17.92;74.84
67354;SHT30;54238;52.278;21.056;2022-07-25T02:13:33;17.91;74.62
67354;SHT30;54238;52.278;21.056;2022-07-25T02:16:05;17.90;74.75
67354;SHT30;54238;52.278;21.056;2022-07-25T02:18:36;17.89;74.96
67354;SHT30;54238;52.278;21.056;2022-07-25T02:21:09;17.89;74.98
67354;SHT30;54238;52.278;21.056;2022-07-25T02:23:36;17.89;74.97
67354;SHT30;54238;52.278;21.056;2022-07-25T02:26:04;17.88;75.05
67354;SHT30;54238;52.278;21.056;2022-07-25T02:28:33;17.86;75.07
67354;SHT30;54238;52.278;21.056;2022-07-25T02:31:04;17.85;75.12
67354;SHT30;54238;52.278;21.056;2022-07-25T02:33:31;17.81;74.99
67354;SHT30;54238;52.278;21.056;2022-07-25T02:36:00;17.76;75.04
67354;SHT30;54238;52.278;21.056;2022-07-25T02:38:29;17.71;75.12
67354;SHT30;54238;52.278;21.056;2022-07-25T02:40:59;17.69;75.32
67354;SHT30;54238;52.278;21.056;2022-07-25T02:43:29;17.68;75.36
67354;SHT30;54238;52.278;21.056;2022-07-25T02:45:58;17.69;75.55
67354;SHT30;54238;52.278;21.056;2022-07-25T02:48:25;17.72;75.40
67354;SHT30;54238;52.278;21.056;2022-07-25T02:50:53;17.73;75.34
67354;SHT30;54238;52.278;21.056;2022-07-25T02:53:22;17.69;75.27
67354;SHT30;54238;52.278;21.056;2022-07-25T02:55:49;17.64;75.41
67354;SHT30;54238;52.278;21.056;2022-07-25T02:58:18;17.61;75.51
67354;SHT30;54238;52.278;21.056;2022-07-25T03:00:45;17.62;75.56
67354;SHT30;54238;52.278;21.056;2022-07-25T03:03:12;17.61;75.73
67354;SHT30;54238;52.278;21.056;2022-07-25T03:05:42;17.61;75.75
67354;SHT30;54238;52.278;21.056;2022-07-25T03:08:13;17.61;75.81
67354;SHT30;54238;52.278;21.056;2022-07-25T03:10:40;17.60;75.81
67354;SHT30;54238;52.278;21.056;2022-07-25T03:13:08;17.60;75.77
67354;SHT30;54238;52.278;21.056;2022-07-25T03:15:39;17.62;75.84
67354;SHT30;54238;52.278;21.056;2022-07-25T03:18:09;17.66;75.62
67354;SHT30;54238;52.278;21.056;2022-07-25T03:20:38;17.76;75.54
67354;SHT30;54238;52.278;21.056;2022-07-25T03:23:05;17.86;75.22
67354;SHT30;54238;52.278;21.056;2022-07-25T03:25:37;17.97;74.94
67354;SHT30;54238;52.278;21.056;2022-07-25T03:28:04;18.07;74.60
67354;SHT30;54238;52.278;21.056;2022-07-25T03:30:36;18.14;74.29
67354;SHT30;54238;52.278;21.056;2022-07-25T03:33:06;18.22;73.97
67354;SHT30;54238;52.278;21.056;2022-07-25T03:35:38;18.31;73.66
67354;SHT30;54238;52.278;21.056;2022-07-25T03:38:07;18.38;73.62
67354;SHT30;54238;52.278;21.056;2022-07-25T03:40:42;18.41;73.50
67354;SHT30;54238;52.278;21.056;2022-07-25T03:43:12;18.44;73.23
67354;SHT30;54238;52.278;21.056;2022-07-25T03:45:42;18.49;72.89
67354;SHT30;54238;52.278;21.056;2022-07-25T03:48:09;18.55;72.85
67354;SHT30;54238;52.278;21.056;2022-07-25T03:50:36;18.60;72.79
67354;SHT30;54238;52.278;21.056;2022-07-25T03:53:04;18.63;72.63
67354;SHT30;54238;52.278;21.056;2022-07-25T03:55:33;18.69;72.34
67354;SHT30;54238;52.278;21.056;2022-07-25T03:58:02;18.75;72.18
67354;SHT30;54238;52.278;21.056;2022-07-25T04:00:31;18.75;72.19
67354;SHT30;54238;52.278;21.056;2022-07-25T04:02:58;18.81;71.94
67354;SHT30;54238;52.278;21.056;2022-07-25T04:05:28;18.88;71.35
67354;SHT30;54238;52.278;21.056;2022-07-25T04:07:56;18.92;71.12
67354;SHT30;54238;52.278;21.056;2022-07-25T04:10:23;18.98;70.97
67354;SHT30;54238;52.278;21.056;2022-07-25T04:12:53;19.04;70.55
67354;SHT30;54238;52.278;21.056;2022-07-25T04:15:20;19.07;70.52
67354;SHT30;54238;52.278;21.056;2022-07-25T04:17:52;19.10;70.32
67354;SHT30;54238;52.278;21.056;2022-07-25T04:20:22;19.14;70.09
67354;SHT30;54238;52.278;21.056;2022-07-25T04:22:54;19.18;69.94
67354;SHT30;54238;52.278;21.056;2022-07-25T04:25:20;19.21;69.75
67354;SHT30;54238;52.278;21.056;2022-07-25T04:27:53;19.23;69.53
67354;SHT30;54238;52.278;21.056;2022-07-25T04:30:20;19.26;69.43
67354;SHT30;54238;52.278;21.056;2022-07-25T04:32:49;19.25;69.33
67354;SHT30;54238;52.278;21.056;2022-07-25T04:35:16;19.30;69.20
67354;SHT30;54238;52.278;21.056;2022-07-25T04:37:43;19.35;69.16
67354;SHT30;54238;52.278;21.056;2022-07-25T04:40:15;19.37;69.20
67354;SHT30;54238;52.278;21.056;2022-07-25T04:42:43;19.43;68.57
67354;SHT30;54238;52.278;21.056;2022-07-25T04:45:12;19.45;68.23
67354;SHT30;54238;52.278;21.056;2022-07-25T04:47:44;19.51;67.93
67354;SHT30;54238;52.278;21.056;2022-07-25T04:50:12;19.56;67.89
67354;SHT30;54238;52.278;21.056;2022-07-25T04:52:44;19.61;67.77
67354;SHT30;54238;52.278;21.056;2022-07-25T04:55:14;19.64;67.32
67354;SHT30;54238;52.278;21.056;2022-07-25T04:57:44;19.69;67.33
67354;SHT30;54238;52.278;21.056;2022-07-25T05:00:13;19.75;67.13
67354;SHT30;54238;52.278;21.056;2022-07-25T05:02:44;19.80;66.80
67354;SHT30;54238;52.278;21.056;2022-07-25T05:05:15;19.84;66.22
67354;SHT30;54238;52.278;21.056;2022-07-25T05:07:46;19.87;65.70
67354;SHT30;54238;52.278;21.056;2022-07-25T05:10:15;19.93;65.59
67354;SHT30;54238;52.278;21.056;2022-07-25T05:12:45;19.97;65.41
67354;SHT30;54238;52.278;21.056;2022-07-25T05:15:14;20.01;65.18
67354;SHT30;54238;52.278;21.056;2022-07-25T05:17:44;20.07;65.05
67354;SHT30;54238;52.278;21.056;2022-07-25T05:20:12;20.10;64.97
67354;SHT30;54238;52.278;21.056;2022-07-25T05:22:41;20.15;65.07
67354;SHT30;54238;52.278;21.056;2022-07-25T05:25:11;20.19;65.29
67354;SHT30;54238;52.278;21.056;2022-07-25T05:27:40;20.26;65.06
67354;SHT30;54238;52.278;21.056;2022-07-25T05:30:12;20.31;64.88
67354;SHT30;54238;52.278;21.056;2022-07-25T05:32:41;20.37;64.77
67354;SHT30;54238;52.278;21.056;2022-07-25T05:35:13;20.42;64.64
67354;SHT30;54238;52.278;21.056;2022-07-25T05:37:43;20.47;64.47
67354;SHT30;54238;52.278;21.056;2022-07-25T05:40:12;20.52;64.18
67354;SHT30;54238;52.278;21.056;2022-07-25T05:42:41;20.58;64.07
67354;SHT30;54238;52.278;21.056;2022-07-25T05:45:11;20.63;63.85
67354;SHT30;54238;52.278;21.056;2022-07-25T05:47:39;20.68;63.62
67354;SHT30;54238;52.278;21.056;2022-07-25T05:50:11;20.73;63.37
67354;SHT30;54238;52.278;21.056;2022-07-25T05:52:38;20.77;63.21
67354;SHT30;54238;52.278;21.056;2022-07-25T05:55:08;20.83;62.94
67354;SHT30;54238;52.278;21.056;2022-07-25T05:57:37;20.88;62.75
67354;SHT30;54238;52.278;21.056;2022-07-25T06:00:08;20.91;62.29
67354;SHT30;54238;52.278;21.056;2022-07-25T06:02:37;20.95;62.07
67354;SHT30;54238;52.278;21.056;2022-07-25T06:05:05;20.98;61.96
67354;SHT30;54238;52.278;21.056;2022-07-25T06:07:34;21.00;61.89
67354;SHT30;54238;52.278;21.056;2022-07-25T06:10:07;21.03;61.84
67354;SHT30;54238;52.278;21.056;2022-07-25T06:12:34;21.10;61.99
67354;SHT30;54238;52.278;21.056;2022-07-25T06:15:01;21.16;62.05
67354;SHT30;54238;52.278;21.056;2022-07-25T06:17:29;21.22;61.66
67354;SHT30;54238;52.278;21.056;2022-07-25T06:19:59;21.29;61.45
67354;SHT30;54238;52.278;21.056;2022-07-25T06:22:30;21.34;61.35
67354;SHT30;54238;52.278;21.056;2022-07-25T06:25:00;21.40;61.25
67354;SHT30;54238;52.278;21.056;2022-07-25T06:27:31;21.46;61.13
67354;SHT30;54238;52.278;21.056;2022-07-25T06:29:58;21.53;60.91
67354;SHT30;54238;52.278;21.056;2022-07-25T06:32:30;21.60;60.53
67354;SHT30;54238;52.278;21.056;2022-07-25T06:34:58;21.65;60.37
67354;SHT30;54238;52.278;21.056;2022-07-25T06:37:27;21.70;60.15
67354;SHT30;54238;52.278;21.056;2022-07-25T06:39:54;21.76;59.88
67354;SHT30;54238;52.278;21.056;2022-07-25T06:42:23;21.85;59.91
67354;SHT30;54238;52.278;21.056;2022-07-25T06:45:01;21.95;59.69
67354;SHT30;54238;52.278;21.056;2022-07-25T06:47:32;22.01;59.16
67354;SHT30;54238;52.278;21.056;2022-07-25T06:49:59;22.08;58.85
67354;SHT30;54238;52.278;21.056;2022-07-25T06:52:31;22.15;58.76
67354;SHT30;54238;52.278;21.056;2022-07-25T06:55:03;22.22;58.41
67354;SHT30;54238;52.278;21.056;2022-07-25T06:57:37;22.28;58.65
67354;SHT30;54238;52.278;21.056;2022-07-25T07:00:05;22.38;58.35
67354;SHT30;54238;52.278;21.056;2022-07-25T07:05:21;22.55;57.42
67354;SHT30;54238;52.278;21.056;2022-07-25T07:07:50;22.62;56.26
67354;SHT30;54238;52.278;21.056;2022-07-25T07:10:17;22.64;55.82
67354;SHT30;54238;52.278;21.056;2022-07-25T07:12:49;22.69;56.20
67354;SHT30;54238;52.278;21.056;2022-07-25T07:15:16;22.78;55.88
67354;SHT30;54238;52.278;21.056;2022-07-25T07:17:46;22.87;55.96
67354;SHT30;54238;52.278;21.056;2022-07-25T07:20:13;23.00;55.88
67354;SHT30;54238;52.278;21.056;2022-07-25T07:22:44;23.12;55.31
67354;SHT30;54238;52.278;21.056;2022-07-25T07:25:14;23.22;55.38
67354;SHT30;54238;52.278;21.056;2022-07-25T07:27:44;23.36;55.36
67354;SHT30;54238;52.278;21.056;2022-07-25T07:30:13;23.52;55.31
67354;SHT30;54238;52.278;21.056;2022-07-25T07:32:41;23.66;54.63
67354;SHT30;54238;52.278;21.056;2022-07-25T07:35:09;23.75;54.17
67354;SHT30;54238;52.278;21.056;2022-07-25T07:37:44;23.82;53.66
67354;SHT30;54238;52.278;21.056;2022-07-25T07:40:15;23.93;53.75
67354;SHT30;54238;52.278;21.056;2022-07-25T07:42:43;24.00;52.75
67354;SHT30;54238;52.278;21.056;2022-07-25T07:45:18;24.09;52.48
67354;SHT30;54238;52.278;21.056;2022-07-25T07:47:48;24.20;52.63
67354;SHT30;54238;52.278;21.056;2022-07-25T07:50:19;24.31;52.61
67354;SHT30;54238;52.278;21.056;2022-07-25T07:52:49;24.40;51.78
67354;SHT30;54238;52.278;21.056;2022-07-25T07:55:20;24.43;51.60
67354;SHT30;54238;52.278;21.056;2022-07-25T07:58:16;24.47;50.77
67354;SHT30;54238;52.278;21.056;2022-07-25T08:00:45;24.48;50.61
67354;SHT30;54238;52.278;21.056;2022-07-25T08:03:25;24.55;50.77
67354;SHT30;54238;52.278;21.056;2022-07-25T08:05:56;24.65;50.75
67354;SHT30;54238;52.278;21.056;2022-07-25T08:08:28;24.72;50.44
67354;SHT30;54238;52.278;21.056;2022-07-25T08:10:55;24.77;49.82
67354;SHT30;54238;52.278;21.056;2022-07-25T08:13:26;24.75;50.32
67354;SHT30;54238;52.278;21.056;2022-07-25T08:16:02;24.79;50.03
67354;SHT30;54238;52.278;21.056;2022-07-25T08:18:33;24.84;49.69
67354;SHT30;54238;52.278;21.056;2022-07-25T08:21:05;24.89;49.83
67354;SHT30;54238;52.278;21.056;2022-07-25T08:23:40;24.92;49.77
67354;SHT30;54238;52.278;21.056;2022-07-25T08:26:12;25.00;50.30
67354;SHT30;54238;52.278;21.056;2022-07-25T08:28:42;25.09;49.79
67354;SHT30;54238;52.278;21.056;2022-07-25T08:31:14;25.12;48.29
67354;SHT30;54238;52.278;21.056;2022-07-25T08:33:41;25.13;48.31
67354;SHT30;54238;52.278;21.056;2022-07-25T08:36:08;25.12;48.62
67354;SHT30;54238;52.278;21.056;2022-07-25T08:38:37;25.14;48.94
67354;SHT30;54238;52.278;21.056;2022-07-25T08:41:06;25.22;48.09
67354;SHT30;54238;52.278;21.056;2022-07-25T08:43:36;25.25;47.56
67354;SHT30;54238;52.278;21.056;2022-07-25T08:46:09;25.32;47.69
67354;SHT30;54238;52.278;21.056;2022-07-25T08:48:39;25.41;47.27
67354;SHT30;54238;52.278;21.056;2022-07-25T08:51:10;25.49;47.52
67354;SHT30;54238;52.278;21.056;2022-07-25T08:53:39;25.63;48.67
67354;SHT30;54238;52.278;21.056;2022-07-25T08:56:09;25.77;47.53
67354;SHT30;54238;52.278;21.056;2022-07-25T08:58:40;25.95;46.65
67354;SHT30;54238;52.278;21.056;2022-07-25T09:01:07;26.05;45.89
67354;SHT30;54238;52.278;21.056;2022-07-25T09:03:39;26.19;46.03
67354;SHT30;54238;52.278;21.056;2022-07-25T09:09:03;26.44;45.93
67354;SHT30;54238;52.278;21.056;2022-07-25T09:11:35;26.58;45.96
67354;SHT30;54238;52.278;21.056;2022-07-25T09:14:07;26.73;46.03
67354;SHT30;54238;52.278;21.056;2022-07-25T09:16:39;26.87;45.06
67354;SHT30;54238;52.278;21.056;2022-07-25T09:19:11;27.02;44.80
67354;SHT30;54238;52.278;21.056;2022-07-25T09:21:57;27.17;43.53
67354;SHT30;54238;52.278;21.056;2022-07-25T09:24:29;27.30;42.75
67354;SHT30;54238;52.278;21.056;2022-07-25T09:26:58;27.32;41.96
67354;SHT30;54238;52.278;21.056;2022-07-25T09:29:38;27.42;42.04
67354;SHT30;54238;52.278;21.056;2022-07-25T09:32:15;27.56;42.07
67354;SHT30;54238;52.278;21.056;2022-07-25T09:34:50;27.61;41.45
67354;SHT30;54238;52.278;21.056;2022-07-25T09:37:18;27.72;42.12
67354;SHT30;54238;52.278;21.056;2022-07-25T09:39:53;27.90;41.03
67354;SHT30;54238;52.278;21.056;2022-07-25T09:42:21;28.01;40.81
67354;SHT30;54238;52.278;21.056;2022-07-25T09:44:58;28.09;40.47
67354;SHT30;54238;52.278;21.056;2022-07-25T09:48:00;28.24;40.93
67354;SHT30;54238;52.278;21.056;2022-07-25T09:50:36;28.41;40.34
67354;SHT30;54238;52.278;21.056;2022-07-25T09:53:05;28.55;40.49
67354;SHT30;54238;52.278;21.056;2022-07-25T09:55:32;28.74;40.74
67354;SHT30;54238;52.278;21.056;2022-07-25T09:58:02;28.96;40.11
67354;SHT30;54238;52.278;21.056;2022-07-25T10:00:32;29.19;39.62
67354;SHT30;54238;52.278;21.056;2022-07-25T10:03:16;29.21;38.20
67354;SHT30;54238;52.278;21.056;2022-07-25T10:06:01;29.18;38.74
67354;SHT30;54238;52.278;21.056;2022-07-25T10:08:59;29.41;39.38
67354;SHT30;54238;52.278;21.056;2022-07-25T10:11:29;29.73;38.48
67354;SHT30;54238;52.278;21.056;2022-07-25T10:14:07;29.95;37.58
67354;SHT30;54238;52.278;21.056;2022-07-25T10:16:46;30.14;37.61
67354;SHT30;54238;52.278;21.056;2022-07-25T10:19:15;30.29;37.22
67354;SHT30;54238;52.278;21.056;2022-07-25T10:22:09;30.50;36.99
67354;SHT30;54238;52.278;21.056;2022-07-25T10:24:45;30.75;36.38
67354;SHT30;54238;52.278;21.056;2022-07-25T10:27:21;31.02;36.16
67354;SHT30;54238;52.278;21.056;2022-07-25T10:29:53;31.17;35.19
67354;SHT30;54238;52.278;21.056;2022-07-25T10:32:24;31.32;34.89
67354;SHT30;54238;52.278;21.056;2022-07-25T10:35:15;31.52;34.78
67354;SHT30;54238;52.278;21.056;2022-07-25T10:37:43;31.65;34.87
67354;SHT30;54238;52.278;21.056;2022-07-25T10:40:23;31.79;35.71
67354;SHT30;54238;52.278;21.056;2022-07-25T10:43:18;31.94;34.20
67354;SHT30;54238;52.278;21.056;2022-07-25T10:45:52;32.09;33.64
67354;SHT30;54238;52.278;21.056;2022-07-25T10:48:31;32.25;33.91
67354;SHT30;54238;52.278;21.056;2022-07-25T10:51:02;32.44;34.20
67354;SHT30;54238;52.278;21.056;2022-07-25T10:56:19;33.09;33.91
67354;SHT30;54238;52.278;21.056;2022-07-25T10:58:52;33.32;33.19
67354;SHT30;54238;52.278;21.056;2022-07-25T11:01:24;33.48;32.97
67354;SHT30;54238;52.278;21.056;2022-07-25T11:04:13;33.71;32.49
67354;SHT30;54238;52.278;21.056;2022-07-25T11:06:46;33.86;32.36
67354;SHT30;54238;52.278;21.056;2022-07-25T11:09:19;34.01;32.09
67354;SHT30;54238;52.278;21.056;2022-07-25T11:11:51;33.98;31.65
67354;SHT30;54238;52.278;21.056;2022-07-25T11:14:32;34.13;31.60
67354;SHT30;54238;52.278;21.056;2022-07-25T11:17:15;34.30;31.22
67354;SHT30;54238;52.278;21.056;2022-07-25T11:22:29;34.58;31.25
67354;SHT30;54238;52.278;21.056;2022-07-25T11:25:01;34.72;30.61
67354;SHT30;54238;52.278;21.056;2022-07-25T11:27:40;34.95;30.61
67354;SHT30;54238;52.278;21.056;2022-07-25T11:30:08;35.24;30.65
67354;SHT30;54238;52.278;21.056;2022-07-25T11:32:46;35.31;29.00
67354;SHT30;54238;52.278;21.056;2022-07-25T11:35:20;35.15;28.54
67354;SHT30;54238;52.278;21.056;2022-07-25T11:37:52;34.96;28.63
67354;SHT30;54238;52.278;21.056;2022-07-25T11:40:22;34.94;29.01
67354;SHT30;54238;52.278;21.056;2022-07-25T11:42:55;35.00;28.68
67354;SHT30;54238;52.278;21.056;2022-07-25T11:45:26;35.05;28.64
67354;SHT30;54238;52.278;21.056;2022-07-25T11:48:06;35.06;28.46
67354;SHT30;54238;52.278;21.056;2022-07-25T11:50:40;35.11;28.68
67354;SHT30;54238;52.278;21.056;2022-07-25T11:53:13;35.07;28.44
67354;SHT30;54238;52.278;21.056;2022-07-25T11:55:47;35.03;28.90
67354;SHT30;54238;52.278;21.056;2022-07-25T11:58:18;35.25;28.93
67354;SHT30;54238;52.278;21.056;2022-07-25T12:00:50;35.53;28.92
67354;SHT30;54238;52.278;21.056;2022-07-25T12:03:22;35.80;27.89
67354;SHT30;54238;52.278;21.056;2022-07-25T12:05:49;35.87;27.50
67354;SHT30;54238;52.278;21.056;2022-07-25T12:08:23;35.76;28.22
67354;SHT30;54238;52.278;21.056;2022-07-25T12:10:55;35.97;28.48
67354;SHT30;54238;52.278;21.056;2022-07-25T12:13:25;36.31;28.48
67354;SHT30;54238;52.278;21.056;2022-07-25T12:15:56;36.49;27.88
67354;SHT30;54238;52.278;21.056;2022-07-25T12:18:25;36.50;27.86
67354;SHT30;54238;52.278;21.056;2022-07-25T12:20:55;36.71;28.16
67354;SHT30;54238;52.278;21.056;2022-07-25T12:23:25;37.07;27.63
67354;SHT30;54238;52.278;21.056;2022-07-25T12:25:52;37.38;27.01
67354;SHT30;54238;52.278;21.056;2022-07-25T12:28:22;37.61;27.14
67354;SHT30;54238;52.278;21.056;2022-07-25T12:30:52;37.78;26.23
67354;SHT30;54238;52.278;21.056;2022-07-25T12:33:19;37.63;26.30
67354;SHT30;54238;52.278;21.056;2022-07-25T12:35:46;37.81;25.64
67354;SHT30;54238;52.278;21.056;2022-07-25T12:38:15;37.83;25.42
67354;SHT30;54238;52.278;21.056;2022-07-25T12:40:43;37.80;25.17
67354;SHT30;54238;52.278;21.056;2022-07-25T12:43:09;37.81;25.16
67354;SHT30;54238;52.278;21.056;2022-07-25T12:45:39;37.93;25.15
67354;SHT30;54238;52.278;21.056;2022-07-25T12:48:08;37.86;24.96
67354;SHT30;54238;52.278;21.056;2022-07-25T12:50:41;37.90;24.93
67354;SHT30;54238;52.278;21.056;2022-07-25T12:53:09;38.08;24.79
67354;SHT30;54238;52.278;21.056;2022-07-25T12:55:39;38.22;24.64
67354;SHT30;54238;52.278;21.056;2022-07-25T12:58:06;38.41;25.01
67354;SHT30;54238;52.278;21.056;2022-07-25T13:00:34;38.37;24.99
67354;SHT30;54238;52.278;21.056;2022-07-25T13:03:04;38.49;25.35
67354;SHT30;54238;52.278;21.056;2022-07-25T13:05:34;38.51;24.98
67354;SHT30;54238;52.278;21.056;2022-07-25T13:08:04;38.58;25.14
67354;SHT30;54238;52.278;21.056;2022-07-25T13:10:32;38.86;24.85
67354;SHT30;54238;52.278;21.056;2022-07-25T13:13:05;39.03;24.46
67354;SHT30;54238;52.278;21.056;2022-07-25T13:15:32;39.17;24.35
67354;SHT30;54238;52.278;21.056;2022-07-25T13:18:00;39.26;24.26
67354;SHT30;54238;52.278;21.056;2022-07-25T13:20:29;39.25;24.37
67354;SHT30;54238;52.278;21.056;2022-07-25T13:22:58;39.31;24.26
67354;SHT30;54238;52.278;21.056;2022-07-25T13:25:25;39.44;23.89
67354;SHT30;54238;52.278;21.056;2022-07-25T13:27:54;39.33;23.77
67354;SHT30;54238;52.278;21.056;2022-07-25T13:30:22;39.29;24.02
67354;SHT30;54238;52.278;21.056;2022-07-25T13:32:49;39.38;23.98
67354;SHT30;54238;52.278;21.056;2022-07-25T13:35:16;39.47;24.29
67354;SHT30;54238;52.278;21.056;2022-07-25T13:37:48;39.47;24.36
67354;SHT30;54238;52.278;21.056;2022-07-25T13:40:15;39.49;23.97
67354;SHT30;54238;52.278;21.056;2022-07-25T13:42:42;39.45;23.88
67354;SHT30;54238;52.278;21.056;2022-07-25T13:45:09;39.27;23.96
67354;SHT30;54238;52.278;21.056;2022-07-25T13:47:41;39.45;24.30
67354;SHT30;54238;52.278;21.056;2022-07-25T13:50:10;39.69;24.26
67354;SHT30;54238;52.278;21.056;2022-07-25T13:52:37;39.75;24.21
67354;SHT30;54238;52.278;21.056;2022-07-25T13:55:06;39.76;23.88
67354;SHT30;54238;52.278;21.056;2022-07-25T13:57:39;39.95;24.10
67354;SHT30;54238;52.278;21.056;2022-07-25T14:00:08;39.98;24.06
67354;SHT30;54238;52.278;21.056;2022-07-25T14:02:39;39.97;23.78
67354;SHT30;54238;52.278;21.056;2022-07-25T14:05:10;40.07;23.98
67354;SHT30;54238;52.278;21.056;2022-07-25T14:07:39;40.33;23.45
67354;SHT30;54238;52.278;21.056;2022-07-25T14:10:06;40.38;22.68
67354;SHT30;54238;52.278;21.056;2022-07-25T14:12:35;40.38;22.66
67354;SHT30;54238;52.278;21.056;2022-07-25T14:15:07;40.24;22.61
67354;SHT30;54238;52.278;21.056;2022-07-25T14:17:38;40.05;22.88
67354;SHT30;54238;52.278;21.056;2022-07-25T14:20:10;39.78;23.37
67354;SHT30;54238;52.278;21.056;2022-07-25T14:22:44;39.69;23.25
67354;SHT30;54238;52.278;21.056;2022-07-25T14:28:13;39.44;23.69
67354;SHT30;54238;52.278;21.056;2022-07-25T14:30:40;39.59;23.58
67354;SHT30;54238;52.278;21.056;2022-07-25T14:33:10;39.67;23.83
67354;SHT30;54238;52.278;21.056;2022-07-25T14:35:37;39.66;23.68
67354;SHT30;54238;52.278;21.056;2022-07-25T14:38:04;39.67;23.61
67354;SHT30;54238;52.278;21.056;2022-07-25T14:40:36;39.62;23.39
67354;SHT30;54238;52.278;21.056;2022-07-25T14:43:08;39.60;23.41
67354;SHT30;54238;52.278;21.056;2022-07-25T14:45:35;39.65;23.42
67354;SHT30;54238;52.278;21.056;2022-07-25T14:48:06;39.47;23.29
67354;SHT30;54238;52.278;21.056;2022-07-25T14:50:35;39.45;23.35
67354;SHT30;54238;52.278;21.056;2022-07-25T14:53:05;39.54;23.48
67354;SHT30;54238;52.278;21.056;2022-07-25T14:55:32;39.40;24.02
67354;SHT30;54238;52.278;21.056;2022-07-25T14:58:02;39.31;23.82
67354;SHT30;54238;52.278;21.056;2022-07-25T15:00:29;39.19;23.49
67354;SHT30;54238;52.278;21.056;2022-07-25T15:02:59;39.21;23.17
67354;SHT30;54238;52.278;21.056;2022-07-25T15:05:33;39.29;23.34
67354;SHT30;54238;52.278;21.056;2022-07-25T15:08:05;39.19;23.16
67354;SHT30;54238;52.278;21.056;2022-07-25T15:10:34;39.02;23.26
67354;SHT30;54238;52.278;21.056;2022-07-25T15:13:01;39.00;23.60
67354;SHT30;54238;52.278;21.056;2022-07-25T15:15:31;39.19;23.61
67354;SHT30;54238;52.278;21.056;2022-07-25T15:17:58;39.37;23.64
67354;SHT30;54238;52.278;21.056;2022-07-25T15:20:27;39.28;23.48
67354;SHT30;54238;52.278;21.056;2022-07-25T15:22:54;39.17;23.56
67354;SHT30;54238;52.278;21.056;2022-07-25T15:25:21;39.04;23.55
67354;SHT30;54238;52.278;21.056;2022-07-25T15:27:48;39.02;23.87
67354;SHT30;54238;52.278;21.056;2022-07-25T15:30:19;39.08;24.34
67354;SHT30;54238;52.278;21.056;2022-07-25T15:32:49;39.04;23.70
67354;SHT30;54238;52.278;21.056;2022-07-25T15:35:18;38.90;23.76
67354;SHT30;54238;52.278;21.056;2022-07-25T15:37:46;38.85;24.00
67354;SHT30;54238;52.278;21.056;2022-07-25T15:40:15;38.70;23.86
67354;SHT30;54238;52.278;21.056;2022-07-25T15:42:44;38.49;23.87
67354;SHT30;54238;52.278;21.056;2022-07-25T15:45:13;38.37;23.91
67354;SHT30;54238;52.278;21.056;2022-07-25T15:47:47;38.23;24.06
67354;SHT30;54238;52.278;21.056;2022-07-25T15:50:17;38.27;24.41